Time;durP1;ratioP1;P1;durP2;ratioP2;P2;SDS_P1;SDS_P2;PMS_P1;PMS_P2;Temp;Humidity;BMP_temperature;BMP_pressure;BME280_temperature;BME280_humidity;BME280_pressure;Samples;Min_cycle;Max_cycle;Signal;HPM_P1;HPM_P2
2021/05/21 00:01:04;;;;;;;2.30;2.20;;;;;;;;;;5063544;28;20385;-54
2021/05/21 00:03:30;;;;;;;1.63;1.60;;;;;;;;;;5060979;28;20048;-53
2021/05/21 00:05:57;;;;;;;2.47;1.63;;;;;;;;;;5052654;28;20525;-53
2021/05/21 00:08:24;;;;;;;2.17;2.08;;;;;;;;;;5065838;28;20453;-54
2021/05/21 00:10:51;;;;;;;1.77;1.77;;;;;;;;;;5063434;28;20040;-52
2021/05/21 00:13:18;;;;;;;2.58;2.45;;;;;;;;;;5055858;28;20037;-54
2021/05/21 00:15:44;;;;;;;2.10;2.10;;;;;;;;;;5062550;28;20064;-53
2021/05/21 00:18:11;;;;;;;2.92;2.05;;;;;;;;;;5050464;28;20053;-54
2021/05/21 00:20:38;;;;;;;3.70;2.00;;;;;;;;;;5067854;28;20047;-52
2021/05/21 00:23:04;;;;;;;2.60;2.45;;;;;;;;;;5055631;28;20048;-52
2021/05/21 00:25:31;;;;;;;1.90;1.90;;;;;;;;;;5068891;28;20396;-54
2021/05/21 00:27:58;;;;;;;2.05;2.05;;;;;;;;;;5062756;28;20064;-54
2021/05/21 00:30:25;;;;;;;2.22;2.22;;;;;;;;;;5058805;28;20456;-52
2021/05/21 00:32:51;;;;;;;2.08;1.98;;;;;;;;;;5062127;28;20146;-52
2021/05/21 00:35:18;;;;;;;2.67;2.50;;;;;;;;;;5057922;28;20083;-49
2021/05/21 00:37:45;;;;;;;1.77;1.77;;;;;;;;;;5054073;28;20037;-52
2021/05/21 00:40:12;;;;;;;4.15;2.10;;;;;;;;;;5060549;28;20381;-53
2021/05/21 00:42:39;;;;;;;4.32;1.83;;;;;;;;;;5054703;28;20739;-52
2021/05/21 00:45:06;;;;;;;2.20;2.10;;;;;;;;;;5072085;28;20051;-53
2021/05/21 00:47:32;;;;;;;1.95;1.85;;;;;;;;;;5069421;28;20656;-53
2021/05/21 00:49:59;;;;;;;2.97;2.88;;;;;;;;;;5058738;28;20063;-53
2021/05/21 00:52:26;;;;;;;2.72;2.53;;;;;;;;;;5066362;28;20032;-54
2021/05/21 00:54:54;;;;;;;3.75;2.40;;;;;;;;;;5055893;28;20116;-54
2021/05/21 00:57:21;;;;;;;2.92;2.30;;;;;;;;;;5073402;28;20131;-54
2021/05/21 00:59:49;;;;;;;3.55;2.30;;;;;;;;;;5062321;28;20070;-54
2021/05/21 01:02:16;;;;;;;4.07;2.35;;;;;;;;;;5073673;28;20049;-56
2021/05/21 01:04:43;;;;;;;3.05;2.60;;;;;;;;;;5066386;28;20033;-49
2021/05/21 01:07:09;;;;;;;4.65;3.13;;;;;;;;;;5064971;28;20478;-53
2021/05/21 01:09:36;;;;;;;2.15;2.15;;;;;;;;;;5073235;28;20036;-53
2021/05/21 01:12:03;;;;;;;2.53;2.42;;;;;;;;;;5069101;28;20491;-53
2021/05/21 01:14:30;;;;;;;2.45;2.33;;;;;;;;;;5073666;28;20024;-53
2021/05/21 01:16:57;;;;;;;2.22;2.22;;;;;;;;;;5063989;28;20377;-53
2021/05/21 01:19:24;;;;;;;1.98;1.40;;;;;;;;;;5058169;28;20045;-50
2021/05/21 01:21:51;;;;;;;2.13;2.13;;;;;;;;;;5059491;28;20098;-52
2021/05/21 01:24:18;;;;;;;2.45;2.05;;;;;;;;;;5062581;28;20544;-53
2021/05/21 01:26:47;;;;;;;5.53;3.70;;;;;;;;;;5057154;28;20045;-54
2021/05/21 01:29:14;;;;;;;2.10;2.00;;;;;;;;;;5069656;28;20079;-52
2021/05/21 01:31:43;;;;;;;4.28;1.98;;;;;;;;;;5061167;28;20143;-52
2021/05/21 01:34:10;;;;;;;5.03;2.45;;;;;;;;;;5058928;28;20040;-53
2021/05/21 01:36:37;;;;;;;2.35;2.35;;;;;;;;;;5064601;28;20036;-53
2021/05/21 01:39:07;;;;;;;4.38;4.18;;;;;;;;;;5055544;28;20584;-54
2021/05/21 01:41:37;;;;;;;4.78;4.68;;;;;;;;;;5069762;28;20040;-53
2021/05/21 01:44:05;;;;;;;3.70;3.70;;;;;;;;;;5066797;28;20389;-54
2021/05/21 01:46:32;;;;;;;3.33;3.13;;;;;;;;;;5064662;28;20083;-53
2021/05/21 01:48:59;;;;;;;5.40;5.13;;;;;;;;;;5067553;28;20086;-53
2021/05/21 01:51:26;;;;;;;6.20;5.95;;;;;;;;;;5059733;28;20052;-53
2021/05/21 01:54:08;;;;;;;5.15;5.05;;;;;;;;;;5071554;28;20374;-54
2021/05/21 01:56:35;;;;;;;8.35;8.25;;;;;;;;;;5067914;28;20059;-54
2021/05/21 01:59:01;;;;;;;4.20;4.10;;;;;;;;;;5068178;28;20119;-54
2021/05/21 02:01:28;;;;;;;3.05;2.85;;;;;;;;;;5071181;28;20033;-51
2021/05/21 02:03:57;;;;;;;8.32;5.13;;;;;;;;;;5058651;28;20037;-53
2021/05/21 02:06:24;;;;;;;5.75;5.72;;;;;;;;;;5058434;28;20120;-51
2021/05/21 02:08:51;;;;;;;4.22;4.13;;;;;;;;;;5063114;28;20040;-54
2021/05/21 02:11:18;;;;;;;8.65;6.47;;;;;;;;;;5070033;28;20072;-52
2021/05/21 02:13:45;;;;;;;3.65;3.38;;;;;;;;;;5071131;28;20123;-53
2021/05/21 02:16:12;;;;;;;5.57;5.57;;;;;;;;;;5063198;28;20102;-54
2021/05/21 02:18:39;;;;;;;8.65;8.45;;;;;;;;;;5057241;28;20049;-54
2021/05/21 02:21:05;;;;;;;12.50;3.75;;;;;;;;;;5065941;28;20039;-52
2021/05/21 02:23:32;;;;;;;8.35;8.25;;;;;;;;;;5069854;28;20041;-52
2021/05/21 02:25:59;;;;;;;10.23;10.10;;;;;;;;;;5068638;28;20063;-52
2021/05/21 02:28:26;;;;;;;7.80;7.80;;;;;;;;;;5069243;28;20369;-53
2021/05/21 02:30:52;;;;;;;13.23;12.98;;;;;;;;;;5067192;28;20044;-53
2021/05/21 02:33:19;;;;;;;13.85;13.75;;;;;;;;;;5070088;28;20035;-53
2021/05/21 02:35:46;;;;;;;12.10;11.80;;;;;;;;;;5055750;28;20526;-53
2021/05/21 02:38:12;;;;;;;14.77;14.68;;;;;;;;;;5068935;28;20029;-53
2021/05/21 02:40:39;;;;;;;13.70;13.50;;;;;;;;;;5065939;28;20497;-53
2021/05/21 02:43:06;;;;;;;11.45;11.25;;;;;;;;;;5054709;28;20107;-54
2021/05/21 02:45:33;;;;;;;15.15;14.95;;;;;;;;;;5062260;28;20481;-52
2021/05/21 02:47:59;;;;;;;12.05;11.52;;;;;;;;;;5053485;28;20123;-54
2021/05/21 02:50:26;;;;;;;9.93;9.82;;;;;;;;;;5062415;28;20412;-54
2021/05/21 02:52:53;;;;;;;9.48;9.38;;;;;;;;;;5062169;28;20110;-54
2021/05/21 02:55:20;;;;;;;14.70;14.57;;;;;;;;;;5053346;28;20040;-53
2021/05/21 02:57:46;;;;;;;15.30;14.55;;;;;;;;;;5068114;28;20366;-54
2021/05/21 03:00:14;;;;;;;58.58;16.70;;;;;;;;;;5067465;28;20028;-54
2021/05/21 03:02:40;;;;;;;62.22;16.08;;;;;;;;;;5066142;28;20386;-54
2021/05/21 03:05:07;;;;;;;28.80;15.57;;;;;;;;;;5062052;28;20472;-53
2021/05/21 03:07:34;;;;;;;16.40;15.23;;;;;;;;;;5052341;28;20604;-53
2021/05/21 03:10:00;;;;;;;19.15;17.52;;;;;;;;;;5068242;28;20101;-53
2021/05/21 03:12:27;;;;;;;16.00;15.90;;;;;;;;;;5066646;28;20473;-52
2021/05/21 03:14:55;;;;;;;16.23;15.52;;;;;;;;;;5070625;28;20040;-52
2021/05/21 03:17:22;;;;;;;16.00;15.90;;;;;;;;;;5065254;28;20068;-53
2021/05/21 03:19:48;;;;;;;16.10;15.65;;;;;;;;;;5068027;28;20033;-54
2021/05/21 03:22:15;;;;;;;18.23;18.13;;;;;;;;;;5059911;28;20032;-53
2021/05/21 03:24:42;;;;;;;15.90;14.35;;;;;;;;;;5058146;28;20441;-50
2021/05/21 03:27:09;;;;;;;19.38;16.65;;;;;;;;;;5070829;28;20040;-53
2021/05/21 03:29:36;;;;;;;24.73;14.82;;;;;;;;;;5066724;28;20044;-53
2021/05/21 03:32:03;;;;;;;27.85;16.38;;;;;;;;;;5057573;28;20417;-54
2021/05/21 03:34:29;;;;;;;30.90;16.55;;;;;;;;;;5061942;28;20029;-54
2021/05/21 03:36:56;;;;;;;83.65;16.63;;;;;;;;;;5062348;28;20048;-53
2021/05/21 03:39:23;;;;;;;44.58;19.17;;;;;;;;;;5054104;28;20037;-54
2021/05/21 03:41:50;;;;;;;174.27;22.35;;;;;;;;;;5063244;28;20033;-53
2021/05/21 03:44:16;;;;;;;65.97;17.48;;;;;;;;;;5068284;28;20044;-52
2021/05/21 03:46:43;;;;;;;16.52;16.42;;;;;;;;;;5060305;28;20041;-54
2021/05/21 03:49:12;;;;;;;109.38;19.48;;;;;;;;;;5058752;28;20127;-53
2021/05/21 03:51:39;;;;;;;19.05;17.58;;;;;;;;;;5052760;28;20727;-53
2021/05/21 03:54:06;;;;;;;19.92;18.33;;;;;;;;;;5061590;28;20090;-53
2021/05/21 03:56:32;;;;;;;20.80;18.63;;;;;;;;;;5063037;28;20024;-54
2021/05/21 03:59:00;;;;;;;17.63;17.52;;;;;;;;;;5070505;28;20035;-54
2021/05/21 04:01:26;;;;;;;18.02;17.48;;;;;;;;;;5065083;28;20412;-51
2021/05/21 04:03:55;;;;;;;19.08;17.50;;;;;;;;;;5062309;28;20106;-54
2021/05/21 04:06:21;;;;;;;40.63;18.35;;;;;;;;;;5064071;28;20091;-49
2021/05/21 04:08:48;;;;;;;19.98;17.23;;;;;;;;;;5066441;28;20044;-53
2021/05/21 04:11:15;;;;;;;17.08;16.75;;;;;;;;;;5068178;28;20048;-53
2021/05/21 04:13:42;;;;;;;16.52;15.98;;;;;;;;;;5067749;28;20078;-50
2021/05/21 04:16:08;;;;;;;35.00;18.15;;;;;;;;;;5062404;28;20037;-53
2021/05/21 04:18:35;;;;;;;205.27;23.70;;;;;;;;;;5067121;28;20068;-51
2021/05/21 04:21:02;;;;;;;47.00;18.92;;;;;;;;;;5060257;28;20036;-52
2021/05/21 04:23:29;;;;;;;34.40;17.40;;;;;;;;;;5056771;28;20037;-53
2021/05/21 04:25:56;;;;;;;60.90;18.67;;;;;;;;;;5060661;28;20091;-52
2021/05/21 04:28:22;;;;;;;37.15;14.77;;;;;;;;;;5052438;28;20094;-53
2021/05/21 04:30:51;;;;;;;17.08;16.17;;;;;;;;;;5062672;28;20047;-54
2021/05/21 04:33:18;;;;;;;18.38;16.75;;;;;;;;;;5059669;28;20078;-53
2021/05/21 04:35:44;;;;;;;18.60;17.75;;;;;;;;;;5059914;28;20416;-53
2021/05/21 04:38:13;;;;;;;17.73;17.42;;;;;;;;;;5060991;28;20542;-52
2021/05/21 04:40:39;;;;;;;19.02;18.35;;;;;;;;;;5056597;28;20037;-54
2021/05/21 04:43:06;;;;;;;80.45;19.52;;;;;;;;;;5058831;28;20049;-52
2021/05/21 04:45:33;;;;;;;64.85;19.60;;;;;;;;;;5058634;28;20059;-53
2021/05/21 04:47:59;;;;;;;77.45;18.60;;;;;;;;;;5055541;28;20061;-52
2021/05/21 04:50:26;;;;;;;75.40;19.42;;;;;;;;;;5060069;28;20481;-54
2021/05/21 04:52:54;;;;;;;66.13;19.05;;;;;;;;;;5052931;28;20048;-53
2021/05/21 04:55:21;;;;;;;44.80;16.33;;;;;;;;;;5053744;28;20049;-53
2021/05/21 04:57:51;;;;;;;42.63;20.48;;;;;;;;;;5061689;28;20031;-54
2021/05/21 05:00:18;;;;;;;47.05;18.08;;;;;;;;;;5069659;28;20481;-53
2021/05/21 05:02:44;;;;;;;53.30;19.80;;;;;;;;;;5060697;28;20076;-53
2021/05/21 05:05:12;;;;;;;12.68;12.07;;;;;;;;;;5054505;28;20045;-54
2021/05/21 05:07:38;;;;;;;13.48;12.40;;;;;;;;;;5056300;28;20159;-49
2021/05/21 05:10:05;;;;;;;44.15;18.48;;;;;;;;;;5064720;28;20374;-52
2021/05/21 05:12:32;;;;;;;20.48;18.50;;;;;;;;;;5049649;28;20041;-51
2021/05/21 05:14:59;;;;;;;7.90;7.57;;;;;;;;;;5066955;28;20090;-52
2021/05/21 05:17:25;;;;;;;95.40;9.50;;;;;;;;;;5063797;28;20116;-50
2021/05/21 05:19:52;;;;;;;94.90;19.95;;;;;;;;;;5063088;28;20480;-54
2021/05/21 05:22:19;;;;;;;66.07;16.98;;;;;;;;;;5062195;28;20036;-52
2021/05/21 05:24:46;;;;;;;241.50;23.08;;;;;;;;;;5063527;28;20040;-55
2021/05/21 05:27:13;;;;;;;242.35;24.15;;;;;;;;;;5067932;28;20037;-56
2021/05/21 05:29:45;;;;;;;271.08;21.45;;;;;;;;;;5065381;28;20036;-56
2021/05/21 05:32:11;;;;;;;62.50;18.80;;;;;;;;;;5071316;28;20063;-57
2021/05/21 05:34:38;;;;;;;108.68;19.10;;;;;;;;;;5064803;28;20051;-56
2021/05/21 05:37:05;;;;;;;41.03;9.35;;;;;;;;;;5054866;28;20045;-56
2021/05/21 05:39:32;;;;;;;27.45;4.63;;;;;;;;;;5064997;28;20037;-55
2021/05/21 05:41:58;;;;;;;2.80;2.72;;;;;;;;;;5070647;28;20047;-56
2021/05/21 05:44:27;;;;;;;2.83;2.70;;;;;;;;;;5072663;28;20045;-55
2021/05/21 05:46:54;;;;;;;2.05;2.05;;;;;;;;;;5066015;28;20413;-57
2021/05/21 05:49:20;;;;;;;2.13;2.00;;;;;;;;;;5064650;28;20102;-54
2021/05/21 05:51:47;;;;;;;1.85;1.80;;;;;;;;;;5062408;28;20444;-55
2021/05/21 05:54:14;;;;;;;1.90;1.90;;;;;;;;;;5062661;28;20029;-56
2021/05/21 05:56:41;;;;;;;1.65;1.63;;;;;;;;;;5071821;28;20068;-55
2021/05/21 05:59:07;;;;;;;1.67;1.38;;;;;;;;;;5066252;28;20052;-55
2021/05/21 06:01:34;;;;;;;1.40;1.30;;;;;;;;;;5068737;28;20033;-52
2021/05/21 06:04:01;;;;;;;2.15;2.15;;;;;;;;;;5072586;28;20106;-55
2021/05/21 06:06:29;;;;;;;2.40;2.20;;;;;;;;;;5064116;28;20048;-56
2021/05/21 06:08:57;;;;;;;7.30;1.65;;;;;;;;;;5054954;28;20127;-54
2021/05/21 06:11:24;;;;;;;1.35;1.35;;;;;;;;;;5063952;28;20037;-56
2021/05/21 06:13:51;;;;;;;1.33;1.33;;;;;;;;;;5057345;28;20041;-53
2021/05/21 06:16:18;;;;;;;1.60;1.60;;;;;;;;;;5058736;28;20037;-56
2021/05/21 06:18:47;;;;;;;1.48;1.48;;;;;;;;;;5063357;28;20484;-55
2021/05/21 06:21:14;;;;;;;1.27;1.20;;;;;;;;;;5070243;28;20575;-55
2021/05/21 06:23:43;;;;;;;1.20;1.20;;;;;;;;;;5062615;28;20045;-56
2021/05/21 06:28:38;;;;;;;1.33;1.30;;;;;;;;;;5071916;28;20090;-55
2021/05/21 06:31:05;;;;;;;1.50;1.40;;;;;;;;;;5066258;28;20037;-56
2021/05/21 06:33:32;;;;;;;1.15;1.15;;;;;;;;;;5055494;28;20033;-54
2021/05/21 06:35:58;;;;;;;1.63;1.23;;;;;;;;;;5069442;28;20717;-57
2021/05/21 06:38:25;;;;;;;1.00;1.00;;;;;;;;;;5058997;28;20043;-54
2021/05/21 06:40:52;;;;;;;1.63;1.17;;;;;;;;;;5068219;28;20838;-56
2021/05/21 06:43:19;;;;;;;1.10;1.10;;;;;;;;;;5063668;28;20523;-55
2021/05/21 06:45:48;;;;;;;1.70;1.38;;;;;;;;;;5052656;28;20087;-56
2021/05/21 06:48:15;;;;;;;0.98;0.98;;;;;;;;;;5071370;28;20488;-53
2021/05/21 06:50:42;;;;;;;1.10;1.10;;;;;;;;;;5063956;28;20044;-56
2021/05/21 06:53:10;;;;;;;1.88;1.25;;;;;;;;;;5060672;28;20049;-56
2021/05/21 06:55:38;;;;;;;1.52;0.90;;;;;;;;;;5064934;28;20037;-55
2021/05/21 06:58:05;;;;;;;1.10;1.10;;;;;;;;;;5067706;28;20086;-55
2021/05/21 07:00:36;;;;;;;1.52;1.45;;;;;;;;;;5071118;28;20044;-56
2021/05/21 07:03:03;;;;;;;2.25;0.90;;;;;;;;;;5068258;28;20063;-56
2021/05/21 07:05:29;;;;;;;1.00;1.00;;;;;;;;;;5051259;28;20037;-54
2021/05/21 07:07:56;;;;;;;2.47;1.00;;;;;;;;;;5066941;28;20485;-54
2021/05/21 07:10:23;;;;;;;2.10;1.83;;;;;;;;;;5055869;28;20686;-56
2021/05/21 07:12:50;;;;;;;1.42;1.00;;;;;;;;;;5069963;28;20052;-56
2021/05/21 07:15:16;;;;;;;1.58;1.00;;;;;;;;;;5065511;28;20334;-53
2021/05/21 07:17:43;;;;;;;4.07;1.10;;;;;;;;;;5051112;28;20061;-56
2021/05/21 07:20:14;;;;;;;2.20;0.80;;;;;;;;;;5067512;28;20028;-56
2021/05/21 07:22:41;;;;;;;1.30;1.20;;;;;;;;;;5060884;28;20128;-56
2021/05/21 07:25:07;;;;;;;1.73;1.00;;;;;;;;;;5060356;28;20102;-57
2021/05/21 07:27:34;;;;;;;1.20;0.90;;;;;;;;;;5064587;28;20029;-54
2021/05/21 07:30:01;;;;;;;1.42;0.90;;;;;;;;;;5067596;28;20045;-56
2021/05/21 07:32:28;;;;;;;2.15;0.88;;;;;;;;;;5061062;28;20045;-57
2021/05/21 07:34:55;;;;;;;3.33;0.80;;;;;;;;;;5057803;28;20123;-56
2021/05/21 07:37:22;;;;;;;1.33;0.90;;;;;;;;;;5064774;28;20041;-57
2021/05/21 07:39:49;;;;;;;1.30;1.27;;;;;;;;;;5065945;28;20449;-56
2021/05/21 07:42:15;;;;;;;0.90;0.90;;;;;;;;;;5053766;28;20041;-56
2021/05/21 07:44:43;;;;;;;0.90;0.90;;;;;;;;;;5070091;28;20079;-53
2021/05/21 07:47:10;;;;;;;1.25;0.85;;;;;;;;;;5067075;28;20056;-56
2021/05/21 07:49:40;;;;;;;2.03;0.85;;;;;;;;;;5069170;28;20059;-56
2021/05/21 07:52:07;;;;;;;3.45;0.80;;;;;;;;;;5062845;28;20091;-55
2021/05/21 07:54:34;;;;;;;1.00;1.00;;;;;;;;;;5056154;28;20429;-55
2021/05/21 07:57:01;;;;;;;0.80;0.80;;;;;;;;;;5058573;28;20359;-56
2021/05/21 07:59:28;;;;;;;0.82;0.80;;;;;;;;;;5059222;28;20041;-56
2021/05/21 08:01:55;;;;;;;1.52;0.70;;;;;;;;;;5070084;28;20047;-56
2021/05/21 08:04:21;;;;;;;0.80;0.80;;;;;;;;;;5066564;28;20041;-57
2021/05/21 08:06:48;;;;;;;2.47;0.70;;;;;;;;;;5064984;28;20047;-57
2021/05/21 08:09:17;;;;;;;2.05;0.85;;;;;;;;;;5063325;28;20091;-57
2021/05/21 08:11:44;;;;;;;2.90;0.82;;;;;;;;;;5060882;28;20033;-57
2021/05/21 08:14:11;;;;;;;1.30;1.20;;;;;;;;;;5051759;28;20069;-54
2021/05/21 08:16:38;;;;;;;0.93;0.80;;;;;;;;;;5067322;28;20036;-55
2021/05/21 08:19:05;;;;;;;2.10;0.80;;;;;;;;;;5067122;28;20032;-56
2021/05/21 08:21:32;;;;;;;0.80;0.80;;;;;;;;;;5068251;28;20094;-56
2021/05/21 08:24:00;;;;;;;0.80;0.80;;;;;;;;;;5065170;28;20074;-57
2021/05/21 08:26:26;;;;;;;3.50;0.80;;;;;;;;;;5055194;28;20452;-57
2021/05/21 08:28:57;;;;;;;0.70;0.70;;;;;;;;;;5069080;28;20040;-57
2021/05/21 08:31:24;;;;;;;0.70;0.70;;;;;;;;;;5065230;28;20094;-55
2021/05/21 08:33:51;;;;;;;0.88;0.70;;;;;;;;;;5070184;28;20105;-57
2021/05/21 08:36:21;;;;;;;1.23;0.80;;;;;;;;;;5062349;28;20056;-56
2021/05/21 08:38:48;;;;;;;0.70;0.70;;;;;;;;;;5053126;28;20057;-53
2021/05/21 08:41:16;;;;;;;1.92;1.00;;;;;;;;;;5068952;28;20087;-57
2021/05/21 08:43:48;;;;;;;1.38;0.80;;;;;;;;;;5064672;28;20510;-56
2021/05/21 08:46:15;;;;;;;0.93;0.70;;;;;;;;;;5069300;28;20051;-56
2021/05/21 08:48:42;;;;;;;0.70;0.70;;;;;;;;;;5066070;28;20098;-57
2021/05/21 08:51:10;;;;;;;1.95;0.70;;;;;;;;;;5065323;28;20040;-51
2021/05/21 08:53:37;;;;;;;3.17;0.70;;;;;;;;;;5067282;28;20109;-56
2021/05/21 08:56:05;;;;;;;1.83;0.70;;;;;;;;;;5061766;28;20128;-56
2021/05/21 08:58:33;;;;;;;0.70;0.70;;;;;;;;;;5053808;28;20045;-57
2021/05/21 09:01:00;;;;;;;1.63;0.65;;;;;;;;;;5061265;28;20033;-56
2021/05/21 09:03:27;;;;;;;1.55;0.60;;;;;;;;;;5056567;28;20029;-56
2021/05/21 09:06:15;;;;;;;0.60;0.60;;;;;;;;;;5056401;28;20040;-57
2021/05/21 09:08:51;;;;;;;1.35;0.70;;;;;;;;;;5063790;28;20505;-57
2021/05/21 09:11:34;;;;;;;0.60;0.60;;;;;;;;;;5057205;28;20086;-57
2021/05/21 09:14:02;;;;;;;3.13;0.60;;;;;;;;;;5059184;28;20474;-57
2021/05/21 09:16:31;;;;;;;1.83;0.60;;;;;;;;;;5067318;28;20044;-57
2021/05/21 09:19:08;;;;;;;0.60;0.60;;;;;;;;;;5068303;28;20047;-56
2021/05/21 09:21:47;;;;;;;0.60;0.60;;;;;;;;;;5072188;28;20045;-54
2021/05/21 09:24:15;;;;;;;0.60;0.60;;;;;;;;;;5067781;28;20554;-57
2021/05/21 09:26:43;;;;;;;0.60;0.60;;;;;;;;;;5060368;28;20037;-57
2021/05/21 09:29:12;;;;;;;0.60;0.60;;;;;;;;;;5064962;28;20051;-57
2021/05/21 09:31:43;;;;;;;1.95;0.60;;;;;;;;;;5055298;28;20090;-57
2021/05/21 09:34:10;;;;;;;2.05;0.70;;;;;;;;;;5073399;28;20044;-57
2021/05/21 09:36:38;;;;;;;0.80;0.68;;;;;;;;;;5067333;28;20087;-57
2021/05/21 09:39:09;;;;;;;0.85;0.70;;;;;;;;;;5064144;28;20125;-58
2021/05/21 09:41:51;;;;;;;0.70;0.70;;;;;;;;;;5066300;28;20041;-58
2021/05/21 09:44:18;;;;;;;0.60;0.60;;;;;;;;;;5062871;28;20036;-58
2021/05/21 09:46:49;;;;;;;0.70;0.70;;;;;;;;;;5053827;28;20077;-57
2021/05/21 09:49:29;;;;;;;0.60;0.60;;;;;;;;;;5063108;28;20041;-58
2021/05/21 09:51:57;;;;;;;1.42;0.60;;;;;;;;;;5060978;28;20079;-57
2021/05/21 09:54:25;;;;;;;0.90;0.60;;;;;;;;;;5061812;28;20025;-57
2021/05/21 09:57:04;;;;;;;0.60;0.60;;;;;;;;;;5065895;28;20064;-58
2021/05/21 09:59:38;;;;;;;2.20;1.17;;;;;;;;;;5056787;28;20050;-56
2021/05/21 10:02:21;;;;;;;1.88;0.70;;;;;;;;;;5059083;28;20069;-57
2021/05/21 10:04:48;;;;;;;;;;;;;;;;;;5062299;28;20036;-57
2021/05/21 10:07:15;;;;;;;0.93;0.60;;;;;;;;;;5070941;28;19920;-57
2021/05/21 10:09:42;;;;;;;0.63;0.63;;;;;;;;;;5069517;28;20032;-57
2021/05/21 10:12:09;;;;;;;1.38;0.65;;;;;;;;;;5061224;28;20035;-56
2021/05/21 10:14:36;;;;;;;0.60;0.60;;;;;;;;;;5068117;28;20047;-56
2021/05/21 10:17:04;;;;;;;0.60;0.60;;;;;;;;;;5068248;28;20036;-57
2021/05/21 10:19:32;;;;;;;2.70;0.70;;;;;;;;;;5060495;28;20109;-56
2021/05/21 10:21:59;;;;;;;0.65;0.65;;;;;;;;;;5068694;28;20136;-57
2021/05/21 10:24:34;;;;;;;1.38;0.60;;;;;;;;;;5064724;28;20459;-57
2021/05/21 10:27:03;;;;;;;4.43;0.60;;;;;;;;;;5069031;28;20491;-58
2021/05/21 10:29:32;;;;;;;0.60;0.60;;;;;;;;;;5065399;28;20048;-57
2021/05/21 10:32:30;;;;;;;0.50;0.50;;;;;;;;;;5057715;28;20115;-56
2021/05/21 10:34:58;;;;;;;0.60;0.60;;;;;;;;;;5016382;28;20049;-56
2021/05/21 10:37:31;;;;;;;0.60;0.60;;;;;;;;;;5024980;28;20480;-56
2021/05/21 10:39:58;;;;;;;0.60;0.60;;;;;;;;;;5025670;28;20076;-57
2021/05/21 10:42:24;;;;;;;0.50;0.50;;;;;;;;;;5023362;28;20045;-57
2021/05/21 10:44:52;;;;;;;0.60;0.60;;;;;;;;;;5023875;28;20088;-58
2021/05/21 10:47:20;;;;;;;0.65;0.60;;;;;;;;;;5018584;28;20062;-58
2021/05/21 10:50:05;;;;;;;0.60;0.60;;;;;;;;;;4998141;28;20072;-58
2021/05/21 10:52:47;;;;;;;0.60;0.60;;;;;;;;;;4994461;28;20053;-55
2021/05/21 10:55:13;;;;;;;0.60;0.60;;;;;;;;;;5001207;28;20594;-57
2021/05/21 10:57:42;;;;;;;0.60;0.60;;;;;;;;;;4998658;28;20053;-56
2021/05/21 11:00:09;;;;;;;2.03;0.60;;;;;;;;;;5003989;28;20691;-57
2021/05/21 11:02:44;;;;;;;0.60;0.60;;;;;;;;;;5003287;28;20041;-57
2021/05/21 11:05:29;;;;;;;0.60;0.60;;;;;;;;;;5000539;28;20066;-57
2021/05/21 11:08:00;;;;;;;0.50;0.50;;;;;;;;;;4989858;28;20451;-57
2021/05/21 11:10:27;;;;;;;1.00;0.57;;;;;;;;;;4996218;28;20050;-58
2021/05/21 11:12:58;;;;;;;0.50;0.50;;;;;;;;;;5015644;28;20050;-56
2021/05/21 11:15:44;;;;;;;1.40;0.52;;;;;;;;;;5026411;28;20038;-57
2021/05/21 11:18:18;;;;;;;0.60;0.60;;;;;;;;;;5017451;28;20034;-55
2021/05/21 11:21:04;;;;;;;0.60;0.60;;;;;;;;;;5018245;28;20036;-57
2021/05/21 11:23:35;;;;;;;0.50;0.50;;;;;;;;;;5027209;28;20443;-55
2021/05/21 11:26:02;;;;;;;1.17;0.60;;;;;;;;;;5020433;28;20077;-57
2021/05/21 11:28:29;;;;;;;1.20;0.60;;;;;;;;;;5015243;28;20072;-55
2021/05/21 11:30:56;;;;;;;0.98;0.60;;;;;;;;;;5015207;28;20052;-57
2021/05/21 11:33:22;;;;;;;0.70;0.70;;;;;;;;;;5015276;28;20088;-57
2021/05/21 11:35:54;;;;;;;1.20;0.55;;;;;;;;;;5011184;28;20038;-57
2021/05/21 11:38:26;;;;;;;1.00;0.50;;;;;;;;;;5021057;28;20442;-58
2021/05/21 11:40:53;;;;;;;1.08;0.50;;;;;;;;;;5022195;28;20045;-59
2021/05/21 11:43:26;;;;;;;1.58;0.50;;;;;;;;;;5011660;28;20038;-58
2021/05/21 11:45:54;;;;;;;0.50;0.50;;;;;;;;;;5018692;28;20060;-58
2021/05/21 11:48:30;;;;;;;3.35;0.55;;;;;;;;;;5065906;28;20041;-58
2021/05/21 11:50:58;;;;;;;0.55;0.50;;;;;;;;;;5068061;28;20389;-58
2021/05/21 11:53:24;;;;;;;0.50;0.50;;;;;;;;;;5068148;28;20048;-56
2021/05/21 11:55:51;;;;;;;1.10;0.50;;;;;;;;;;5065163;28;20075;-58
2021/05/21 11:58:24;;;;;;;0.65;0.57;;;;;;;;;;5061110;28;20129;-59
2021/05/21 12:00:56;;;;;;;0.60;0.60;;;;;;;;;;5053632;28;20033;-58
2021/05/21 12:03:23;;;;;;;0.82;0.60;;;;;;;;;;5066672;28;20047;-57
2021/05/21 12:05:51;;;;;;;0.68;0.60;;;;;;;;;;5064153;28;20062;-55
2021/05/21 12:08:21;;;;;;;0.82;0.82;;;;;;;;;;5066602;28;20049;-58
2021/05/21 12:10:54;;;;;;;0.50;0.50;;;;;;;;;;5060583;28;20561;-57
2021/05/21 12:13:21;;;;;;;0.60;0.60;;;;;;;;;;5057145;28;20041;-59
2021/05/21 12:15:48;;;;;;;1.17;0.60;;;;;;;;;;5056438;28;20041;-57
2021/05/21 12:18:15;;;;;;;0.90;0.60;;;;;;;;;;5063242;28;20118;-57
2021/05/21 12:20:50;;;;;;;0.50;0.50;;;;;;;;;;5066804;28;20124;-59
2021/05/21 12:23:18;;;;;;;0.50;0.50;;;;;;;;;;5068708;28;20124;-59
2021/05/21 12:25:45;;;;;;;1.17;0.60;;;;;;;;;;5059254;28;20405;-58
2021/05/21 12:28:12;;;;;;;1.00;0.52;;;;;;;;;;5061327;28;20484;-57
2021/05/21 12:30:38;;;;;;;1.65;0.50;;;;;;;;;;5055867;28;20370;-54
2021/05/21 12:33:07;;;;;;;1.00;0.50;;;;;;;;;;5052512;28;20040;-44
2021/05/21 12:35:38;;;;;;;1.15;0.52;;;;;;;;;;5069358;28;20116;-43
2021/05/21 12:38:05;;;;;;;0.50;0.50;;;;;;;;;;5066595;28;20028;-43
2021/05/21 12:40:32;;;;;;;0.50;0.50;;;;;;;;;;5057029;28;20036;-44
2021/05/21 12:43:05;;;;;;;0.50;0.50;;;;;;;;;;5073280;28;20033;-43
2021/05/21 12:45:35;;;;;;;0.73;0.50;;;;;;;;;;5060670;28;20408;-46
2021/05/21 12:48:02;;;;;;;0.50;0.50;;;;;;;;;;5059150;28;20057;-43
2021/05/21 12:50:32;;;;;;;0.40;0.40;;;;;;;;;;5065767;28;20091;-43
2021/05/21 12:52:59;;;;;;;0.50;0.50;;;;;;;;;;5071031;28;20049;-43
2021/05/21 12:55:27;;;;;;;0.95;0.40;;;;;;;;;;5063821;28;20041;-43
2021/05/21 12:57:55;;;;;;;1.40;0.50;;;;;;;;;;5062454;28;20063;-43
2021/05/21 13:00:22;;;;;;;2.00;0.50;;;;;;;;;;5063058;28;20044;-44
2021/05/21 13:02:53;;;;;;;2.38;0.63;;;;;;;;;;5063738;28;20037;-43
2021/05/21 13:05:23;;;;;;;1.15;0.40;;;;;;;;;;5057418;28;20159;-43
2021/05/21 13:07:57;;;;;;;1.20;0.50;;;;;;;;;;5072383;28;20044;-44
2021/05/21 13:10:27;;;;;;;0.50;0.50;;;;;;;;;;5071507;28;20405;-43
2021/05/21 13:12:54;;;;;;;2.08;0.50;;;;;;;;;;5064384;28;20049;-44
2021/05/21 13:15:22;;;;;;;0.50;0.50;;;;;;;;;;5070689;28;20098;-45
2021/05/21 13:17:52;;;;;;;0.65;0.47;;;;;;;;;;5070784;28;20040;-45
2021/05/21 13:20:26;;;;;;;0.70;0.50;;;;;;;;;;5071475;28;20086;-46
2021/05/21 13:23:03;;;;;;;0.55;0.50;;;;;;;;;;5065792;28;20575;-43
2021/05/21 13:25:30;;;;;;;1.13;0.50;;;;;;;;;;5058258;28;20452;-45
2021/05/21 13:28:04;;;;;;;0.50;0.50;;;;;;;;;;5071868;28;20403;-43
2021/05/21 13:30:31;;;;;;;0.60;0.50;;;;;;;;;;5070429;28;20060;-47
2021/05/21 13:33:00;;;;;;;0.50;0.50;;;;;;;;;;5053187;28;20417;-44
2021/05/21 13:35:27;;;;;;;0.50;0.50;;;;;;;;;;5071056;28;20044;-43
2021/05/21 13:37:58;;;;;;;1.90;0.60;;;;;;;;;;5068166;28;20044;-43
2021/05/21 13:40:24;;;;;;;2.38;0.50;;;;;;;;;;5065115;28;20048;-44
2021/05/21 13:42:51;;;;;;;2.10;0.55;;;;;;;;;;5064419;28;20040;-42
2021/05/21 13:45:18;;;;;;;0.65;0.57;;;;;;;;;;5055365;28;20048;-44
2021/05/21 13:47:44;;;;;;;0.60;0.50;;;;;;;;;;5065268;28;20044;-43
2021/05/21 13:50:11;;;;;;;0.50;0.50;;;;;;;;;;5061180;28;20032;-47
2021/05/21 13:52:38;;;;;;;2.00;0.50;;;;;;;;;;5072327;28;20047;-43
2021/05/21 13:55:07;;;;;;;0.50;0.50;;;;;;;;;;5068911;28;20048;-45
2021/05/21 13:57:34;;;;;;;1.20;0.60;;;;;;;;;;5066227;28;20548;-43
2021/05/21 14:00:01;;;;;;;1.92;0.50;;;;;;;;;;5062223;28;20091;-43
2021/05/21 14:02:28;;;;;;;0.88;0.50;;;;;;;;;;5062264;28;20040;-43
2021/05/21 14:04:55;;;;;;;0.82;0.50;;;;;;;;;;5072318;28;20114;-44
2021/05/21 14:07:22;;;;;;;1.55;0.50;;;;;;;;;;5067299;28;20040;-44
2021/05/21 14:09:49;;;;;;;2.80;0.57;;;;;;;;;;5070114;28;20024;-44
2021/05/21 14:12:17;;;;;;;0.50;0.50;;;;;;;;;;5071286;28;20405;-42
2021/05/21 14:14:44;;;;;;;2.60;0.60;;;;;;;;;;5064923;28;20036;-43
2021/05/21 14:17:10;;;;;;;0.50;0.50;;;;;;;;;;5054718;28;20048;-42
2021/05/21 14:19:37;;;;;;;0.50;0.50;;;;;;;;;;5068563;28;20436;-42
2021/05/21 14:22:04;;;;;;;2.17;0.50;;;;;;;;;;5067067;28;20044;-43
2021/05/21 14:24:31;;;;;;;0.88;0.50;;;;;;;;;;5072627;28;20626;-43
2021/05/21 14:26:57;;;;;;;0.93;0.50;;;;;;;;;;5068579;28;20044;-43
2021/05/21 14:29:24;;;;;;;1.52;0.40;;;;;;;;;;5070575;28;20542;-44
2021/05/21 14:31:51;;;;;;;0.82;0.55;;;;;;;;;;5063697;28;20037;-43
2021/05/21 14:34:25;;;;;;;0.50;0.50;;;;;;;;;;5059040;28;20039;-44
2021/05/21 14:36:52;;;;;;;0.50;0.50;;;;;;;;;;5068982;28;20045;-43
2021/05/21 14:39:20;;;;;;;0.75;0.50;;;;;;;;;;5068109;28;20029;-43
2021/05/21 14:41:47;;;;;;;1.73;0.50;;;;;;;;;;5054786;28;20037;-44
2021/05/21 14:44:15;;;;;;;0.82;0.50;;;;;;;;;;5062088;28;20043;-42
2021/05/21 14:46:42;;;;;;;0.60;0.60;;;;;;;;;;5066349;28;20076;-43